createdAt,value
2017-06-18T00:01:04.194Z,8.07
2017-06-18T00:03:30.585Z,8.10
2017-06-18T00:05:56.961Z,7.83
2017-06-18T00:08:23.356Z,7.83
2017-06-18T00:10:49.727Z,7.70
2017-06-18T00:13:16.116Z,7.40
2017-06-18T00:15:42.467Z,8.30
2017-06-18T00:18:08.867Z,8.30
2017-06-18T00:20:35.231Z,9.53
2017-06-18T00:23:01.596Z,8.47
2017-06-18T00:25:35.862Z,9.13
2017-06-18T00:28:02.266Z,9.37
2017-06-18T00:30:28.656Z,10.50
2017-06-18T00:32:55.027Z,7.80
2017-06-18T00:35:21.419Z,9.27
2017-06-18T00:37:47.798Z,9.50
2017-06-18T00:40:14.193Z,9.00
2017-06-18T00:42:41.318Z,8.93
2017-06-18T00:45:07.674Z,10.00
2017-06-18T00:47:34.049Z,9.17
2017-06-18T00:50:00.389Z,10.30
2017-06-18T00:52:26.779Z,10.03
2017-06-18T00:54:53.897Z,9.57
2017-06-18T00:57:20.291Z,10.37
2017-06-18T00:59:46.660Z,10.23
2017-06-18T01:02:13.034Z,10.40
2017-06-18T01:04:39.422Z,10.90
2017-06-18T01:07:05.814Z,10.60
2017-06-18T01:09:32.218Z,9.93
2017-06-18T01:11:59.312Z,11.00
2017-06-18T01:14:25.686Z,11.90
2017-06-18T01:16:52.043Z,11.30
2017-06-18T01:19:18.478Z,11.67
2017-06-18T01:21:44.870Z,11.67
2017-06-18T01:24:11.239Z,10.90
2017-06-18T01:26:37.632Z,10.80
2017-06-18T01:29:04.007Z,11.00
2017-06-18T01:31:30.396Z,11.97
2017-06-18T01:33:57.531Z,11.37
2017-06-18T01:36:23.918Z,12.10
2017-06-18T01:38:50.317Z,13.17
2017-06-18T01:41:16.734Z,13.00
2017-06-18T01:43:43.120Z,12.13
2017-06-18T01:46:09.522Z,12.50
2017-06-18T01:48:36.698Z,13.60
2017-06-18T01:51:03.119Z,13.40
2017-06-18T01:53:29.534Z,13.57
2017-06-18T01:55:55.930Z,13.70
2017-06-18T01:58:22.319Z,13.63
2017-06-18T02:00:48.714Z,15.33
2017-06-18T02:03:15.083Z,15.27
2017-06-18T02:05:41.454Z,15.37
2017-06-18T02:08:08.227Z,14.33
2017-06-18T02:10:34.613Z,15.07
2017-06-18T02:13:00.994Z,14.60
2017-06-18T02:15:27.357Z,14.50
2017-06-18T02:17:53.750Z,15.10
2017-06-18T02:20:20.127Z,14.00
2017-06-18T02:22:46.481Z,13.93
2017-06-18T02:25:12.873Z,14.80
2017-06-18T02:27:39.253Z,14.13
2017-06-18T02:30:05.639Z,14.53
2017-06-18T02:32:32.019Z,14.63
2017-06-18T02:34:58.387Z,15.37
2017-06-18T02:37:25.535Z,14.97
2017-06-18T02:39:52.652Z,15.07
2017-06-18T02:42:19.036Z,15.47
2017-06-18T02:44:45.397Z,14.90
2017-06-18T02:47:11.795Z,15.10
2017-06-18T02:49:38.158Z,15.53
2017-06-18T02:52:04.559Z,15.03
2017-06-18T02:54:30.948Z,15.37
2017-06-18T02:56:57.368Z,15.10
2017-06-18T02:59:23.736Z,15.13
2017-06-18T03:01:50.859Z,15.73
2017-06-18T03:04:18.011Z,15.63
2017-06-18T03:06:45.125Z,17.00
2017-06-18T03:09:11.536Z,16.43
2017-06-18T03:11:37.919Z,16.70
2017-06-18T03:14:04.340Z,16.07
2017-06-18T03:16:30.734Z,16.50
2017-06-18T03:18:57.403Z,16.60
2017-06-18T03:21:29.910Z,16.77
2017-06-18T03:23:56.327Z,15.33
2017-06-18T03:26:22.731Z,16.70
2017-06-18T03:28:49.116Z,15.23
2017-06-18T03:31:16.250Z,15.20
2017-06-18T03:33:43.378Z,16.20
2017-06-18T03:36:09.755Z,17.13
2017-06-18T03:38:36.166Z,17.23
2017-06-18T03:41:02.565Z,15.00
2017-06-18T03:43:28.929Z,17.00
2017-06-18T03:45:55.342Z,15.77
2017-06-18T03:48:21.714Z,14.70
2017-06-18T03:50:48.827Z,16.40
2017-06-18T03:53:15.974Z,16.20
2017-06-18T03:55:42.356Z,16.10
2017-06-18T03:58:08.754Z,16.27
2017-06-18T04:00:35.151Z,16.87
2017-06-18T04:03:01.562Z,15.93
2017-06-18T04:05:27.943Z,15.10
2017-06-18T04:07:55.124Z,16.37
2017-06-18T04:10:22.404Z,15.90
2017-06-18T04:12:48.796Z,14.80
2017-06-18T04:15:15.943Z,14.83
2017-06-18T04:17:42.338Z,14.40
2017-06-18T04:20:08.728Z,16.07
2017-06-18T04:22:35.111Z,15.63
2017-06-18T04:25:01.512Z,14.07
2017-06-18T04:27:27.896Z,15.67
2017-06-18T04:29:54.275Z,15.50
2017-06-18T04:32:21.958Z,16.30
2017-06-18T04:34:48.355Z,15.03
2017-06-18T04:37:14.730Z,15.10
2017-06-18T04:39:41.158Z,16.03
2017-06-18T04:42:07.537Z,16.40
2017-06-18T04:44:33.913Z,16.10
2017-06-18T04:47:00.300Z,16.50
2017-06-18T04:49:26.682Z,15.20
2017-06-18T04:51:53.067Z,16.13
2017-06-18T04:54:19.462Z,14.50
2017-06-18T04:56:46.610Z,15.23
2017-06-18T04:59:13.226Z,15.20
2017-06-18T05:01:39.630Z,15.80
2017-06-18T05:04:06.036Z,14.80
2017-06-18T05:06:33.150Z,15.63
2017-06-18T05:08:59.522Z,16.20
2017-06-18T05:11:26.672Z,15.70
2017-06-18T05:13:53.041Z,15.13
2017-06-18T05:16:19.439Z,17.53
2017-06-18T05:18:45.844Z,16.67
2017-06-18T05:21:12.998Z,16.10
2017-06-18T05:23:40.149Z,16.57
2017-06-18T05:26:07.272Z,16.60
2017-06-18T05:28:33.664Z,15.77
2017-06-18T05:31:00.067Z,16.47
2017-06-18T05:33:26.476Z,16.20
2017-06-18T05:35:52.937Z,17.20
2017-06-18T05:38:19.332Z,16.17
2017-06-18T05:40:45.736Z,15.00
2017-06-18T05:43:12.138Z,17.53
2017-06-18T05:45:39.286Z,16.10
2017-06-18T05:48:05.690Z,16.90
2017-06-18T05:50:32.139Z,17.40
2017-06-18T05:52:58.553Z,16.90
2017-06-18T05:55:24.991Z,15.80
2017-06-18T05:57:52.143Z,17.87
2017-06-18T06:00:18.591Z,17.40
2017-06-18T06:02:45.730Z,18.57
2017-06-18T06:05:22.172Z,17.50
2017-06-18T06:07:48.564Z,17.77
2017-06-18T06:10:15.056Z,17.17
2017-06-18T06:12:42.232Z,18.20
2017-06-18T06:15:09.372Z,17.57
2017-06-18T06:17:36.517Z,16.70
2017-06-18T06:20:02.884Z,15.90
2017-06-18T06:22:29.273Z,15.50
2017-06-18T06:24:55.648Z,16.47
2017-06-18T06:27:22.048Z,17.20
2017-06-18T06:29:48.434Z,16.00
2017-06-18T06:32:14.865Z,16.90
2017-06-18T06:34:41.331Z,17.20
2017-06-18T06:37:07.715Z,17.90
2017-06-18T06:39:34.138Z,17.47
2017-06-18T06:42:00.541Z,17.10
2017-06-18T06:44:27.689Z,17.40
2017-06-18T06:46:54.844Z,18.30
2017-06-18T06:49:21.995Z,16.70
2017-06-18T06:51:49.138Z,18.50
2017-06-18T06:54:15.617Z,17.83
2017-06-18T06:56:42.099Z,17.00
2017-06-18T06:59:08.516Z,17.03
2017-06-18T07:01:34.918Z,16.57
2017-06-18T07:04:01.339Z,16.47
2017-06-18T07:06:27.779Z,17.77
2017-06-18T07:08:54.176Z,17.17
2017-06-18T07:11:28.305Z,16.50
2017-06-18T07:13:55.457Z,16.53
2017-06-18T07:16:21.966Z,17.20
2017-06-18T07:18:49.101Z,17.87
2017-06-18T07:21:16.271Z,18.67
2017-06-18T07:23:43.427Z,16.80
2017-06-18T07:26:09.854Z,18.40
2017-06-18T07:28:36.959Z,18.33
2017-06-18T07:31:03.371Z,17.63
2017-06-18T07:33:29.782Z,17.43
2017-06-18T07:35:56.197Z,17.20
2017-06-18T07:38:23.367Z,17.90
2017-06-18T07:40:49.736Z,18.27
2017-06-18T07:43:16.143Z,17.40
2017-06-18T07:45:42.547Z,16.30
2017-06-18T07:48:09.712Z,18.03
2017-06-18T07:50:36.215Z,16.50
2017-06-18T07:53:03.359Z,16.13
2017-06-18T07:55:29.771Z,16.87
2017-06-18T07:57:56.167Z,17.50
2017-06-18T08:00:22.582Z,16.57
2017-06-18T08:02:48.975Z,17.40
2017-06-18T08:05:15.517Z,16.90
2017-06-18T08:07:41.906Z,17.10
2017-06-18T08:10:08.289Z,16.47
2017-06-18T08:12:35.484Z,16.60
2017-06-18T08:15:01.894Z,15.13
2017-06-18T08:17:28.293Z,15.43
2017-06-18T08:19:54.693Z,14.70
2017-06-18T08:22:21.105Z,14.40
2017-06-18T08:24:47.574Z,14.30
2017-06-18T08:27:14.746Z,13.30
2017-06-18T08:29:41.145Z,13.70
2017-06-18T08:32:07.544Z,14.23
2017-06-18T08:34:33.921Z,13.20
2017-06-18T08:37:00.352Z,13.40
2017-06-18T08:39:26.789Z,12.60
2017-06-18T08:41:53.978Z,12.77
2017-06-18T08:44:20.411Z,12.93
2017-06-18T08:46:47.523Z,12.00
2017-06-18T08:49:13.938Z,12.17
2017-06-18T08:51:40.401Z,11.37
2017-06-18T08:54:06.842Z,12.10
2017-06-18T08:56:33.990Z,12.00
2017-06-18T08:59:00.390Z,12.47
2017-06-18T09:01:26.793Z,14.17
2017-06-18T09:03:53.171Z,12.67
2017-06-18T09:06:20.372Z,11.27
2017-06-18T09:08:46.768Z,12.80
2017-06-18T09:11:13.933Z,12.67
2017-06-18T09:13:40.336Z,12.40
2017-06-18T09:16:07.595Z,11.43
2017-06-18T09:18:33.999Z,11.70
2017-06-18T09:21:00.403Z,11.23
2017-06-18T09:23:26.829Z,10.73
2017-06-18T09:25:53.252Z,11.20
2017-06-18T09:28:19.643Z,11.40
2017-06-18T09:30:46.831Z,10.80
2017-06-18T09:33:14.018Z,10.27
2017-06-18T09:35:40.399Z,10.47
2017-06-18T09:38:06.853Z,10.50
2017-06-18T09:40:33.251Z,10.37
2017-06-18T09:42:59.993Z,11.10
2017-06-18T09:45:27.565Z,12.37
2017-06-18T09:47:54.707Z,11.10
2017-06-18T09:50:21.183Z,10.10
2017-06-18T09:52:47.688Z,11.50
2017-06-18T09:55:14.154Z,11.20
2017-06-18T09:57:40.638Z,10.90
2017-06-18T10:00:07.049Z,10.67
2017-06-18T10:02:33.451Z,10.40
2017-06-18T10:04:59.843Z,9.97
2017-06-18T10:07:26.985Z,10.93
2017-06-18T10:09:54.161Z,9.80
2017-06-18T10:12:20.554Z,10.87
2017-06-18T10:14:46.974Z,11.20
2017-06-18T10:17:13.439Z,10.73
2017-06-18T10:19:39.810Z,10.40
2017-06-18T10:22:12.500Z,12.40
2017-06-18T10:24:38.921Z,10.77
2017-06-18T10:27:05.365Z,18.37
2017-06-18T10:29:31.797Z,10.10
2017-06-18T10:31:58.215Z,11.10
2017-06-18T10:34:24.587Z,13.23
2017-06-18T10:36:50.999Z,11.17
2017-06-18T10:39:17.432Z,9.83
2017-06-18T10:41:43.806Z,10.20
2017-06-18T10:44:10.193Z,10.37
2017-06-18T10:46:36.571Z,9.87
2017-06-18T10:49:03.725Z,9.00
2017-06-18T10:51:30.864Z,9.93
2017-06-18T10:53:57.374Z,9.47
2017-06-18T10:56:23.784Z,8.33
2017-06-18T10:58:50.151Z,10.23
2017-06-18T11:01:16.548Z,8.73
2017-06-18T11:03:42.922Z,9.03
2017-06-18T11:06:09.322Z,8.10
2017-06-18T11:08:35.735Z,8.20
2017-06-18T11:11:02.404Z,7.97
2017-06-18T11:13:28.787Z,8.33
2017-06-18T11:15:55.203Z,9.33
2017-06-18T11:18:21.588Z,8.53
2017-06-18T11:20:48.001Z,8.90
2017-06-18T11:23:14.390Z,8.60
2017-06-18T11:25:40.765Z,7.73
2017-06-18T11:28:07.175Z,8.33
2017-06-18T11:30:34.310Z,8.90
2017-06-18T11:33:00.699Z,8.03
2017-06-18T11:35:27.115Z,8.43
2017-06-18T11:37:53.505Z,8.80
2017-06-18T11:40:19.873Z,7.30
2017-06-18T11:42:53.381Z,8.30
2017-06-18T11:45:19.785Z,7.70
2017-06-18T11:47:46.288Z,9.77
2017-06-18T11:50:12.694Z,9.30
2017-06-18T11:52:39.075Z,8.60
2017-06-18T11:55:06.205Z,8.77
2017-06-18T11:57:32.635Z,8.47
2017-06-18T11:59:59.041Z,8.90
2017-06-18T12:02:25.443Z,8.00
2017-06-18T12:04:52.034Z,7.70
2017-06-18T12:07:19.205Z,7.70
2017-06-18T12:09:45.645Z,7.63
2017-06-18T12:12:12.333Z,7.60
2017-06-18T12:14:38.711Z,8.10
2017-06-18T12:17:06.609Z,7.20
2017-06-18T12:19:33.031Z,7.20
2017-06-18T12:21:59.439Z,6.70
2017-06-18T12:24:26.634Z,7.57
2017-06-18T12:26:53.090Z,7.17
2017-06-18T12:29:19.517Z,6.37
2017-06-18T12:31:45.930Z,7.00
2017-06-18T12:34:12.493Z,6.63
2017-06-18T12:36:38.908Z,6.80
2017-06-18T12:39:05.308Z,7.47
2017-06-18T12:41:31.695Z,7.10
2017-06-18T12:43:58.439Z,6.40
2017-06-18T12:46:24.834Z,6.80
2017-06-18T12:48:51.304Z,6.10
2017-06-18T12:51:17.676Z,6.43
2017-06-18T12:53:44.790Z,6.13
2017-06-18T12:56:11.168Z,6.43
2017-06-18T12:58:37.547Z,6.00
2017-06-18T13:01:03.980Z,6.67
2017-06-18T13:03:30.390Z,6.10
2017-06-18T13:05:56.835Z,6.50
2017-06-18T13:08:23.229Z,7.13
2017-06-18T13:10:49.639Z,6.33
2017-06-18T13:13:17.069Z,6.40
2017-06-18T13:15:44.209Z,6.87
2017-06-18T13:18:10.574Z,6.40
2017-06-18T13:20:37.695Z,6.80
2017-06-18T13:23:04.093Z,6.20
2017-06-18T13:25:30.498Z,6.20
2017-06-18T13:27:56.891Z,6.03
2017-06-18T13:30:24.080Z,6.50
2017-06-18T13:32:50.460Z,5.17
2017-06-18T13:35:16.862Z,5.80
2017-06-18T13:37:43.256Z,5.37
2017-06-18T13:40:09.672Z,5.97
2017-06-18T13:42:36.104Z,5.77
2017-06-18T13:45:03.281Z,5.13
2017-06-18T13:47:30.501Z,5.50
2017-06-18T13:49:57.675Z,5.50
2017-06-18T13:52:59.255Z,4.90
2017-06-18T13:55:26.210Z,5.20
2017-06-18T13:57:52.607Z,4.93
2017-06-18T14:00:19.747Z,5.20
2017-06-18T14:02:46.154Z,5.13
2017-06-18T14:05:12.556Z,4.67
2017-06-18T14:07:38.957Z,5.30
2017-06-18T14:10:06.103Z,5.63
2017-06-18T14:12:32.498Z,5.20
2017-06-18T14:14:58.909Z,4.50
2017-06-18T14:17:25.302Z,4.97
2017-06-18T14:19:52.449Z,4.30
2017-06-18T14:22:19.578Z,5.10
2017-06-18T14:24:45.993Z,4.67
2017-06-18T14:27:12.362Z,4.77
2017-06-18T14:29:38.873Z,4.80
2017-06-18T14:32:06.019Z,5.10
2017-06-18T14:34:32.448Z,4.93
2017-06-18T14:36:58.837Z,5.70
2017-06-18T14:39:25.264Z,4.83
2017-06-18T14:41:51.671Z,5.30
2017-06-18T14:44:18.795Z,5.00
2017-06-18T14:46:45.229Z,4.60
2017-06-18T14:49:11.633Z,5.30
2017-06-18T14:51:38.062Z,4.30
2017-06-18T14:54:04.458Z,4.20
2017-06-18T14:56:31.620Z,4.07
2017-06-18T14:58:58.118Z,4.47
2017-06-18T15:01:24.526Z,4.20
2017-06-18T15:03:50.923Z,3.73
2017-06-18T15:06:17.348Z,3.90
2017-06-18T15:08:43.748Z,4.37
2017-06-18T15:11:10.183Z,3.67
2017-06-18T15:13:37.326Z,3.73
2017-06-18T15:16:03.709Z,3.70
2017-06-18T15:18:30.114Z,3.57
2017-06-18T15:20:56.516Z,4.03
2017-06-18T15:23:22.936Z,3.70
2017-06-18T15:25:49.306Z,3.63
2017-06-18T15:28:16.495Z,3.80
2017-06-18T15:30:42.880Z,3.20
2017-06-18T15:33:10.014Z,3.40
2017-06-18T15:35:36.389Z,3.43
2017-06-18T15:38:02.784Z,3.10
2017-06-18T15:40:29.200Z,3.20
2017-06-18T15:42:55.632Z,3.23
2017-06-18T15:45:22.028Z,3.60
2017-06-18T15:47:48.402Z,3.20
2017-06-18T15:50:14.824Z,3.27
2017-06-18T15:52:41.253Z,3.17
2017-06-18T15:55:07.657Z,3.20
2017-06-18T15:57:34.048Z,3.20
2017-06-18T16:00:00.468Z,3.27
2017-06-18T16:02:26.860Z,3.30
2017-06-18T16:04:53.274Z,3.97
2017-06-18T16:07:19.702Z,3.20
2017-06-18T16:09:46.279Z,3.47
2017-06-18T16:12:12.844Z,3.30
2017-06-18T16:14:39.392Z,3.07
2017-06-18T16:17:05.957Z,3.67
2017-06-18T16:19:33.213Z,3.20
2017-06-18T16:21:59.674Z,3.10
2017-06-18T16:24:26.136Z,3.40
2017-06-18T16:26:52.650Z,3.13
2017-06-18T16:29:19.021Z,3.50
2017-06-18T16:31:46.356Z,3.47
2017-06-18T16:34:13.507Z,3.67
2017-06-18T16:36:39.893Z,3.30
2017-06-18T16:39:06.284Z,2.90
2017-06-18T16:41:32.675Z,2.90
2017-06-18T16:43:59.063Z,3.30
2017-06-18T16:46:25.465Z,2.67
2017-06-18T16:48:51.858Z,3.07
2017-06-18T16:51:18.250Z,3.40
2017-06-18T16:53:44.651Z,3.03
2017-06-18T16:56:11.050Z,3.07
2017-06-18T16:58:37.437Z,3.00
2017-06-18T17:01:03.858Z,3.17
2017-06-18T17:03:30.245Z,3.90
2017-06-18T17:05:56.656Z,3.20
2017-06-18T17:08:23.067Z,3.57
2017-06-18T17:10:50.499Z,3.30
2017-06-18T17:13:16.919Z,3.20
2017-06-18T17:15:43.648Z,3.10
2017-06-18T17:18:10.053Z,3.10
2017-06-18T17:20:36.487Z,3.00
2017-06-18T17:23:02.884Z,3.30
2017-06-18T17:25:30.067Z,3.60
2017-06-18T17:27:56.477Z,3.20
2017-06-18T17:30:23.638Z,3.10
2017-06-18T17:32:50.022Z,3.20
2017-06-18T17:35:16.463Z,3.40
2017-06-18T17:37:42.855Z,3.60
2017-06-18T17:40:09.276Z,3.27
2017-06-18T17:42:35.674Z,3.03
2017-06-18T17:45:02.806Z,3.03
2017-06-18T17:47:29.244Z,3.27
2017-06-18T17:49:56.391Z,3.30
2017-06-18T17:52:23.023Z,3.10
2017-06-18T17:54:49.671Z,3.47
2017-06-18T17:57:16.147Z,3.00
2017-06-18T17:59:42.554Z,2.80
2017-06-18T18:02:09.923Z,2.90
2017-06-18T18:04:36.318Z,2.90
2017-06-18T18:07:03.473Z,3.10
2017-06-18T18:09:30.652Z,3.00
2017-06-18T18:11:57.766Z,3.10
2017-06-18T18:14:24.938Z,3.50
2017-06-18T18:16:52.083Z,3.30
2017-06-18T18:19:19.223Z,3.40
2017-06-18T18:21:45.596Z,3.30
2017-06-18T18:24:12.008Z,3.23
2017-06-18T18:26:38.418Z,3.33
2017-06-18T18:29:05.051Z,3.43
2017-06-18T18:31:31.541Z,3.47
2017-06-18T18:33:58.089Z,3.40
2017-06-18T18:36:24.470Z,3.30
2017-06-18T18:38:51.828Z,2.80
2017-06-18T18:41:18.248Z,3.07
2017-06-18T18:43:45.381Z,3.40
2017-06-18T18:46:12.407Z,3.40
2017-06-18T18:48:38.968Z,3.30
2017-06-18T18:51:06.139Z,3.23
2017-06-18T18:53:33.371Z,3.60
2017-06-18T18:56:00.613Z,3.70
2017-06-18T18:58:26.995Z,3.60
2017-06-18T19:00:53.422Z,3.30
2017-06-18T19:03:20.103Z,3.90
2017-06-18T19:05:46.542Z,4.00
2017-06-18T19:08:12.931Z,4.07
2017-06-18T19:10:39.323Z,3.60
2017-06-18T19:13:05.756Z,3.40
2017-06-18T19:15:32.169Z,3.70
2017-06-18T19:17:59.500Z,3.60
2017-06-18T19:20:25.990Z,3.97
2017-06-18T19:22:53.277Z,3.80
2017-06-18T19:25:19.731Z,4.07
2017-06-18T19:27:46.501Z,3.80
2017-06-18T19:30:12.877Z,4.43
2017-06-18T19:32:39.357Z,4.47
2017-06-18T19:35:06.503Z,4.03
2017-06-18T19:37:32.916Z,3.97
2017-06-18T19:39:59.321Z,4.60
2017-06-18T19:42:25.702Z,4.83
2017-06-18T19:44:52.130Z,4.30
2017-06-18T19:47:19.280Z,4.10
2017-06-18T19:49:45.702Z,4.80
2017-06-18T19:52:12.133Z,4.70
2017-06-18T19:54:38.533Z,4.67
2017-06-18T19:57:04.922Z,4.40
2017-06-18T19:59:32.098Z,5.43
2017-06-18T20:01:58.502Z,4.57
2017-06-18T20:04:24.929Z,4.57
2017-06-18T20:06:51.298Z,4.30
2017-06-18T20:09:17.735Z,5.20
2017-06-18T20:11:44.125Z,4.37
2017-06-18T20:14:10.537Z,4.63
2017-06-18T20:16:36.930Z,4.97
2017-06-18T20:19:04.105Z,5.10
2017-06-18T20:21:30.513Z,5.33
2017-06-18T20:23:57.653Z,4.97
2017-06-18T20:26:24.773Z,5.00
2017-06-18T20:28:51.195Z,4.90
2017-06-18T20:31:17.601Z,4.93
2017-06-18T20:33:43.996Z,4.83
2017-06-18T20:36:11.165Z,4.90
2017-06-18T20:38:37.583Z,5.00
2017-06-18T20:41:04.708Z,5.00
2017-06-18T20:43:31.122Z,5.30
2017-06-18T20:45:57.520Z,5.13
2017-06-18T20:48:23.911Z,5.40
2017-06-18T20:50:50.280Z,4.93
2017-06-18T20:53:16.676Z,5.30
2017-06-18T20:55:43.050Z,5.20
2017-06-18T20:58:09.462Z,5.20
2017-06-18T21:00:36.598Z,4.80
2017-06-18T21:03:02.982Z,5.30
2017-06-18T21:05:29.358Z,5.30
2017-06-18T21:07:55.753Z,5.93
2017-06-18T21:10:22.119Z,5.30
2017-06-18T21:12:48.497Z,5.27
2017-06-18T21:15:14.884Z,4.93
2017-06-18T21:17:41.268Z,4.73
2017-06-18T21:20:07.678Z,5.80
2017-06-18T21:22:34.065Z,5.93
2017-06-18T21:25:00.464Z,5.33
2017-06-18T21:27:26.813Z,4.93
2017-06-18T21:29:53.221Z,5.70
2017-06-18T21:32:19.615Z,5.23
2017-06-18T21:34:46.049Z,5.47
2017-06-18T21:37:13.206Z,5.90
2017-06-18T21:39:40.422Z,5.60
2017-06-18T21:42:06.802Z,5.87
2017-06-18T21:44:33.186Z,6.13
2017-06-18T21:46:59.580Z,6.03
2017-06-18T21:49:25.935Z,6.07
2017-06-18T21:51:52.668Z,6.30
2017-06-18T21:54:19.048Z,5.83
2017-06-18T21:56:45.454Z,6.23
2017-06-18T21:59:11.861Z,5.93
2017-06-18T22:01:38.273Z,5.80
2017-06-18T22:04:04.651Z,6.67
2017-06-18T22:06:31.034Z,6.47
2017-06-18T22:08:57.422Z,6.13
2017-06-18T22:11:23.808Z,6.10
2017-06-18T22:13:50.186Z,5.70
2017-06-18T22:16:16.558Z,6.00
2017-06-18T22:18:43.001Z,5.70
2017-06-18T22:21:09.371Z,6.50
2017-06-18T22:23:35.773Z,6.80
2017-06-18T22:26:02.134Z,6.30
2017-06-18T22:28:28.503Z,6.70
2017-06-18T22:30:55.618Z,6.87
2017-06-18T22:33:21.985Z,6.40
2017-06-18T22:35:48.353Z,6.67
2017-06-18T22:38:14.709Z,6.50
2017-06-18T22:40:41.091Z,6.77
2017-06-18T22:43:07.462Z,7.60
2017-06-18T22:45:33.826Z,7.17
2017-06-18T22:48:00.206Z,7.47
2017-06-18T22:50:26.587Z,8.20
2017-06-18T22:52:52.968Z,7.53
2017-06-18T22:55:19.343Z,7.57
2017-06-18T22:57:46.451Z,6.77
2017-06-18T23:00:12.838Z,7.57
2017-06-18T23:02:39.232Z,6.97
2017-06-18T23:05:05.600Z,7.50
2017-06-18T23:07:32.717Z,8.60
2017-06-18T23:09:59.073Z,8.13
2017-06-18T23:12:25.458Z,7.73
2017-06-18T23:14:52.371Z,7.80
2017-06-18T23:17:18.743Z,7.80
2017-06-18T23:19:45.101Z,7.50
2017-06-18T23:22:11.507Z,8.00
2017-06-18T23:24:38.645Z,7.87
2017-06-18T23:27:05.019Z,7.20
2017-06-18T23:29:32.145Z,8.70
2017-06-18T23:31:58.513Z,10.17
2017-06-18T23:34:24.895Z,8.97
2017-06-18T23:36:52.048Z,9.77
2017-06-18T23:39:18.420Z,9.40
2017-06-18T23:41:45.535Z,9.03
2017-06-18T23:44:11.909Z,10.60
2017-06-18T23:46:38.284Z,9.40
2017-06-18T23:49:04.670Z,9.83
2017-06-18T23:51:31.055Z,10.70
2017-06-18T23:53:57.442Z,10.00
2017-06-18T23:56:23.813Z,11.03
2017-06-18T23:58:50.227Z,9.73
